Wetterdaten: Montag / Dienstag, 20.11.2012
Datum Zeit Temperatur Luftfeuchte Regen Wind Richtung Richtung Taupunkt Windchill Windben
19.11.2012 14:00 4,6 C 82 % 0,0 l/m 0,8 km/h (0 Bft) N-NO 22 1,8 C 5,2 C 2,6 km/h (1 Bft)
19.11.2012 14:05 4,8 C 79 % 0,0 l/m 1,6 km/h (1 Bft) N-NW 337 1,5 C 5,4 C 0,0 km/h (0 Bft)
19.11.2012 14:10 4,5 C 82 % 0,0 l/m 1,1 km/h (1 Bft) W-NW 292 1,7 C 5,4 C 1,8 km/h (1 Bft)
19.11.2012 14:15 4,3 C 83 % 0,0 l/m 0,2 km/h (0 Bft) N-NW 337 1,7 C 5,5 C 0,0 km/h (0 Bft)
19.11.2012 14:20 4,5 C 83 % 0,0 l/m 0,2 km/h (0 Bft) W-NW 292 1,9 C 5,5 C 0,0 km/h (0 Bft)
19.11.2012 14:25 4,7 C 82 % 0,0 l/m 0,2 km/h (0 Bft) N 360 1,9 C 5,5 C 0,0 km/h (0 Bft)
19.11.2012 14:30 4,6 C 82 % 0,0 l/m 0,5 km/h (0 Bft) N-NW 337 1,8 C 5,4 C 1,8 km/h (1 Bft)
19.11.2012 14:35 4,7 C 82 % 0,0 l/m 0,6 km/h (0 Bft) N 360 1,9 C 5,4 C 0,0 km/h (0 Bft)
19.11.2012 14:40 4,3 C 83 % 0,0 l/m 0,6 km/h (0 Bft) N-NW 337 1,7 C 5,3 C 0,0 km/h (0 Bft)
19.11.2012 14:45 4,5 C 83 % 0,0 l/m 0,3 km/h (0 Bft) N 360 1,9 C 5,3 C 1,9 km/h (1 Bft)
19.11.2012 14:50 4,6 C 83 % 0,0 l/m 0,0 km/h (0 Bft) N-NW 337 2,0 C 5,6 C 0,0 km/h (0 Bft)
19.11.2012 14:55 4,5 C 83 % 0,0 l/m 0,2 km/h (0 Bft) N 360 1,9 C 5,7 C 0,0 km/h (0 Bft)
19.11.2012 15:00 4,4 C 83 % 0,0 l/m 0,2 km/h (0 Bft) W-NW 292 1,8 C 5,6 C 0,0 km/h (0 Bft)
19.11.2012 15:05 4,0 C 84 % 0,0 l/m 0,6 km/h (0 Bft) O-SO 112 1,5 C 5,4 C 0,0 km/h (0 Bft)
19.11.2012 15:10 4,1 C 85 % 0,0 l/m 0,5 km/h (0 Bft) N 360 1,8 C 5,0 C 0,0 km/h (0 Bft)
19.11.2012 15:15 3,9 C 86 % 0,0 l/m 0,2 km/h (0 Bft) W-NW 292 1,8 C 4,7 C 0,0 km/h (0 Bft)
19.11.2012 15:20 3,9 C 86 % 0,0 l/m 0,6 km/h (0 Bft) N 360 1,8 C 4,4 C 1,6 km/h (1 Bft)
19.11.2012 15:25 3,7 C 86 % 0,0 l/m 0,5 km/h (0 Bft) N-NW 337 1,6 C 4,3 C 0,0 km/h (0 Bft)
19.11.2012 15:30 3,7 C 87 % 0,0 l/m 0,0 km/h (0 Bft) N 360 1,7 C 4,1 C 0,0 km/h (0 Bft)
19.11.2012 15:35 3,5 C 87 % 0,0 l/m 0,0 km/h (0 Bft) N 360 1,5 C 4,0 C 0,0 km/h (0 Bft)
19.11.2012 15:40 3,7 C 87 % 0,0 l/m 0,0 km/h (0 Bft) S-SW 202 1,7 C 3,8 C 0,0 km/h (0 Bft)
19.11.2012 15:45 3,3 C 87 % 0,0 l/m 0,0 km/h (0 Bft) N 360 1,3 C 3,6 C 0,0 km/h (0 Bft)
19.11.2012 15:50 3,1 C 88 % 0,0 l/m 0,0 km/h (0 Bft) N-NW 337 1,3 C 3,6 C 2,7 km/h (1 Bft)
19.11.2012 15:55 3,1 C 88 % 0,0 l/m 0,0 km/h (0 Bft) N-NW 337 1,3 C 3,4 C 0,0 km/h (0 Bft)
19.11.2012 16:00 3,2 C 89 % 0,0 l/m 0,0 km/h (0 Bft) N-NW 337 1,6 C 3,3 C 0,0 km/h (0 Bft)
19.11.2012 16:05 3,0 C 89 % 0,0 l/m 0,0 km/h (0 Bft) N 360 1,4 C 3,1 C 0,0 km/h (0 Bft)
19.11.2012 16:10 3,1 C 89 % 0,0 l/m 0,0 km/h (0 Bft) N-NO 22 1,5 C 2,8 C 0,0 km/h (0 Bft)
19.11.2012 16:15 3,1 C 89 % 0,0 l/m 0,0 km/h (0 Bft) N-NO 22 1,5 C 2,8 C 0,0 km/h (0 Bft)
19.11.2012 16:20 3,0 C 89 % 0,0 l/m 0,2 km/h (0 Bft) N-NO 22 1,4 C 2,7 C 0,0 km/h (0 Bft)
19.11.2012 16:25 2,9 C 91 % 0,0 l/m 0,2 km/h (0 Bft) N-NO 22 1,6 C 2,6 C 0,0 km/h (0 Bft)
19.11.2012 16:30 2,7 C 91 % 0,0 l/m 0,0 km/h (0 Bft) N-NO 22 1,4 C 2,3 C 0,0 km/h (0 Bft)
19.11.2012 16:35 2,6 C 91 % 0,0 l/m 0,0 km/h (0 Bft) N-NO 22 1,3 C 2,1 C 0,0 km/h (0 Bft)
19.11.2012 16:40 2,4 C 91 % 0,0 l/m 0,2 km/h (0 Bft) N 360 1,1 C 2,0 C 0,0 km/h (0 Bft)
19.11.2012 16:45 2,2 C 91 % 0,0 l/m 0,2 km/h (0 Bft) N-NO 22 0,9 C 1,8 C 0,0 km/h (0 Bft)
19.11.2012 16:50 2,0 C 91 % 0,0 l/m 0,0 km/h (0 Bft) N-NO 22 0,7 C 1,4 C 0,0 km/h (0 Bft)
19.11.2012 16:55 1,9 C 92 % 0,0 l/m 0,0 km/h (0 Bft) N 360 0,7 C 1,1 C 0,0 km/h (0 Bft)
19.11.2012 17:00 1,2 C 92 % 0,0 l/m 0,0 km/h (0 Bft) O-NO 67 0,0 C 0,6 C 0,0 km/h (0 Bft)
19.11.2012 17:05 0,9 C 92 % 0,0 l/m 0,0 km/h (0 Bft) N-NO 22 -0,2 C 0,3 C 0,0 km/h (0 Bft)
19.11.2012 17:10 1,3 C 92 % 0,0 l/m 0,0 km/h (0 Bft) N 360 0,1 C 0,2 C 0,0 km/h (0 Bft)
19.11.2012 17:15 1,4 C 93 % 0,0 l/m 0,0 km/h (0 Bft) N 360 0,4 C 0,2 C 0,0 km/h (0 Bft)
19.11.2012 17:20 0,8 C 93 % 0,0 l/m 0,2 km/h (0 Bft) N-NO 22 -0,2 C 0,1 C 0,0 km/h (0 Bft)
19.11.2012 17:25 0,9 C 93 % 0,0 l/m 0,2 km/h (0 Bft) N-NO 22 -0,1 C -0,1 C 0,0 km/h (0 Bft)
19.11.2012 17:30 0,7 C 93 % 0,0 l/m 0,0 km/h (0 Bft) N 360 -0,3 C -0,2 C 0,0 km/h (0 Bft)
19.11.2012 17:35 0,6 C 93 % 0,0 l/m 0,0 km/h (0 Bft) N-NO 22 -0,4 C -0,3 C 0,0 km/h (0 Bft)
19.11.2012 17:40 -0,1 C 93 % 0,0 l/m 0,0 km/h (0 Bft) NO 45 -1,1 C -0,7 C 0,0 km/h (0 Bft)
19.11.2012 17:45 -0,3 C 93 % 0,0 l/m 0,0 km/h (0 Bft) NO 45 -1,3 C -1,1 C 0,0 km/h (0 Bft)
19.11.2012 17:50 -0,4 C 93 % 0,0 l/m 0,0 km/h (0 Bft) NO 45 -1,4 C -1,2 C 0,0 km/h (0 Bft)
19.11.2012 17:55 -0,5 C 93 % 0,0 l/m 0,0 km/h (0 Bft) N 360 -1,5 C -1,3 C 0,0 km/h (0 Bft)
19.11.2012 18:00 -0,9 C 93 % 0,0 l/m 0,0 km/h (0 Bft) N 360 -1,9 C -1,3 C 0,0 km/h (0 Bft)
19.11.2012 18:05 -0,7 C 93 % 0,0 l/m 0,0 km/h (0 Bft) N 360 -1,7 C -1,3 C 0,0 km/h (0 Bft)
19.11.2012 18:10 -0,9 C 93 % 0,0 l/m 0,0 km/h (0 Bft) N 360 -1,9 C -1,4 C 0,0 km/h (0 Bft)
19.11.2012 18:15 -0,5 C 93 % 0,0 l/m 0,0 km/h (0 Bft) N 360 -1,5 C -1,4 C 0,0 km/h (0 Bft)
19.11.2012 18:20 -1,1 C 93 % 0,0 l/m 0,0 km/h (0 Bft) N 360 -2,1 C -1,6 C 0,0 km/h (0 Bft)
19.11.2012 18:25 -1,2 C 93 % 0,0 l/m 0,0 km/h (0 Bft) N 360 -2,2 C -1,7 C 0,0 km/h (0 Bft)
19.11.2012 18:30 -1,4 C 93 % 0,0 l/m 0,0 km/h (0 Bft) N 360 -2,4 C -2,1 C 0,0 km/h (0 Bft)
19.11.2012 18:35 -1,6 C 93 % 0,0 l/m 0,0 km/h (0 Bft) N 360 -2,6 C -2,3 C 0,0 km/h (0 Bft)
19.11.2012 18:40 -1,3 C 94 % 0,0 l/m 0,0 km/h (0 Bft) NO 45 -2,1 C -2,3 C 0,0 km/h (0 Bft)
19.11.2012 18:45 -1,4 C 94 % 0,0 l/m 0,0 km/h (0 Bft) O-SO 112 -2,2 C -2,2 C 0,0 km/h (0 Bft)
19.11.2012 18:50 -1,5 C 94 % 0,0 l/m 0,0 km/h (0 Bft) O 90 -2,3 C -2,4 C 0,0 km/h (0 Bft)
19.11.2012 18:52 -2,0 C 94 % 0,0 l/m 0,0 km/h (0 Bft) O-SO 112 -2,8 C -2,4 C 0,0 km/h (0 Bft)
19.11.2012 18:57 -1,8 C 94 % 0,0 l/m 0,0 km/h (0 Bft) O 90 -2,6 C -2,5 C 0,0 km/h (0 Bft)
19.11.2012 19:02 -1,8 C 94 % 0,0 l/m 0,0 km/h (0 Bft) O 90 -2,6 C -2,5 C 0,0 km/h (0 Bft)
19.11.2012 19:05 -1,6 C 94 % 0,0 l/m 0,0 km/h (0 Bft) O-SO 112 -2,4 C -2,4 C 0,0 km/h (0 Bft)
19.11.2012 19:10 -1,3 C 94 % 0,0 l/m 0,0 km/h (0 Bft) O-SO 112 -2,1 C -2,2 C 0,0 km/h (0 Bft)
19.11.2012 19:15 -1,3 C 94 % 0,0 l/m 0,0 km/h (0 Bft) O-SO 112 -2,1 C -2,1 C 0,0 km/h (0 Bft)
19.11.2012 19:20 -1,3 C 94 % 0,0 l/m 0,0 km/h (0 Bft) O-SO 112 -2,1 C -2,0 C 0,0 km/h (0 Bft)
19.11.2012 19:25 -1,2 C 95 % 0,0 l/m 0,0 km/h (0 Bft) O-SO 112 -1,9 C -1,9 C 0,0 km/h (0 Bft)
19.11.2012 19:30 -1,2 C 95 % 0,0 l/m 0,0 km/h (0 Bft) O 90 -1,9 C -1,8 C 0,0 km/h (0 Bft)
19.11.2012 19:35 -1,3 C 95 % 0,0 l/m 0,0 km/h (0 Bft) O-SO 112 -2,0 C -1,7 C 1,9 km/h (1 Bft)
19.11.2012 19:40 -1,1 C 95 % 0,0 l/m 0,0 km/h (0 Bft) O-SO 112 -1,8 C -1,6 C 0,0 km/h (0 Bft)
19.11.2012 19:45 -1,1 C 95 % 0,0 l/m 0,0 km/h (0 Bft) O 90 -1,8 C -1,5 C 0,0 km/h (0 Bft)
19.11.2012 19:50 -0,9 C 95 % 0,0 l/m 0,0 km/h (0 Bft) O 90 -1,6 C -1,3 C 0,0 km/h (0 Bft)
19.11.2012 19:55 -0,9 C 95 % 0,0 l/m 0,0 km/h (0 Bft) O 90 -1,6 C -1,2 C 0,0 km/h (0 Bft)
19.11.2012 20:00 -0,8 C 95 % 0,0 l/m 0,0 km/h (0 Bft) O 90 -1,5 C -0,9 C 0,0 km/h (0 Bft)
19.11.2012 20:05 -0,8 C 95 % 0,0 l/m 0,5 km/h (0 Bft) O 90 -1,5 C -0,9 C 2,3 km/h (1 Bft)
19.11.2012 20:10 -0,8 C 95 % 0,0 l/m 1,1 km/h (1 Bft) O 90 -1,5 C -1,0 C 0,0 km/h (0 Bft)
19.11.2012 20:15 -0,8 C 95 % 0,0 l/m 1,1 km/h (1 Bft) O 90 -1,5 C -1,0 C 3,5 km/h (1 Bft)
19.11.2012 20:20 -0,9 C 95 % 0,0 l/m 1,6 km/h (1 Bft) O 90 -1,6 C -1,1 C 3,2 km/h (1 Bft)
19.11.2012 20:25 -1,0 C 95 % 0,0 l/m 2,4 km/h (1 Bft) O 90 -1,7 C -1,2 C 1,9 km/h (1 Bft)
19.11.2012 20:30 -0,9 C 95 % 0,0 l/m 1,0 km/h (0 Bft) O 90 -1,6 C -1,2 C 0,0 km/h (0 Bft)
19.11.2012 20:35 -0,7 C 96 % 0,0 l/m 0,2 km/h (0 Bft) O 90 -1,3 C -1,2 C 0,0 km/h (0 Bft)
19.11.2012 20:40 -0,7 C 96 % 0,0 l/m 0,2 km/h (0 Bft) O 90 -1,3 C -1,3 C 0,0 km/h (0 Bft)
19.11.2012 20:45 -0,8 C 96 % 0,0 l/m 0,2 km/h (0 Bft) O 90 -1,4 C -1,3 C 0,0 km/h (0 Bft)
19.11.2012 20:50 -1,1 C 96 % 0,0 l/m 0,3 km/h (0 Bft) O 90 -1,7 C -1,4 C 0,0 km/h (0 Bft)
19.11.2012 20:55 -1,1 C 96 % 0,0 l/m 0,3 km/h (0 Bft) O 90 -1,7 C -1,5 C 0,0 km/h (0 Bft)
19.11.2012 21:00 -1,1 C 96 % 0,0 l/m 0,5 km/h (0 Bft) O 90 -1,7 C -1,6 C 1,9 km/h (1 Bft)
19.11.2012 21:05 -1,1 C 96 % 0,0 l/m 0,6 km/h (0 Bft) O 90 -1,7 C -1,6 C 1,6 km/h (1 Bft)
19.11.2012 21:10 -1,1 C 96 % 0,0 l/m 0,5 km/h (0 Bft) O 90 -1,7 C -1,6 C 0,0 km/h (0 Bft)
19.11.2012 21:15 -1,1 C 96 % 0,0 l/m 0,2 km/h (0 Bft) O 90 -1,7 C -1,6 C 0,0 km/h (0 Bft)
19.11.2012 21:20 -1,2 C 96 % 0,0 l/m 0,2 km/h (0 Bft) O 90 -1,8 C -1,6 C 0,0 km/h (0 Bft)
19.11.2012 21:25 -1,2 C 96 % 0,0 l/m 0,2 km/h (0 Bft) O 90 -1,8 C -1,6 C 0,0 km/h (0 Bft)
19.11.2012 21:30 -1,3 C 96 % 0,0 l/m 0,3 km/h (0 Bft) O 90 -1,9 C -1,7 C 0,0 km/h (0 Bft)
19.11.2012 21:35 -1,3 C 96 % 0,0 l/m 0,5 km/h (0 Bft) O 90 -1,9 C -1,7 C 0,0 km/h (0 Bft)
19.11.2012 21:40 -1,4 C 96 % 0,0 l/m 0,2 km/h (0 Bft) O 90 -2,0 C -1,8 C 0,0 km/h (0 Bft)
19.11.2012 21:45 -1,5 C 96 % 0,0 l/m 0,0 km/h (0 Bft) O 90 -2,1 C -1,9 C 0,0 km/h (0 Bft)
19.11.2012 21:50 -1,5 C 96 % 0,0 l/m 0,2 km/h (0 Bft) O 90 -2,1 C -2,0 C 0,0 km/h (0 Bft)
19.11.2012 21:55 -1,6 C 96 % 0,0 l/m 0,3 km/h (0 Bft) O 90 -2,2 C -2,0 C 0,0 km/h (0 Bft)
19.11.2012 22:00 -1,5 C 96 % 0,0 l/m 0,3 km/h (0 Bft) O 90 -2,1 C -2,1 C 0,0 km/h (0 Bft)
19.11.2012 22:05 -1,5 C 96 % 0,0 l/m 0,0 km/h (0 Bft) O 90 -2,1 C -2,1 C 0,0 km/h (0 Bft)
19.11.2012 22:10 -1,5 C 96 % 0,0 l/m 0,0 km/h (0 Bft) O 90 -2,1 C -2,1 C 0,0 km/h (0 Bft)
19.11.2012 22:15 -1,5 C 96 % 0,0 l/m 0,2 km/h (0 Bft) O 90 -2,1 C -2,1 C 1,6 km/h (1 Bft)
19.11.2012 22:20 -1,6 C 96 % 0,0 l/m 0,2 km/h (0 Bft) O 90 -2,2 C -2,1 C 0,0 km/h (0 Bft)
19.11.2012 22:25 -1,7 C 96 % 0,0 l/m 0,0 km/h (0 Bft) O 90 -2,3 C -2,1 C 0,0 km/h (0 Bft)
19.11.2012 22:30 -1,7 C 96 % 0,0 l/m 0,0 km/h (0 Bft) O 90 -2,3 C -2,2 C 0,0 km/h (0 Bft)
19.11.2012 22:35 -1,8 C 96 % 0,0 l/m 0,0 km/h (0 Bft) O 90 -2,4 C -2,2 C 0,0 km/h (0 Bft)
19.11.2012 22:40 -1,8 C 96 % 0,0 l/m 0,0 km/h (0 Bft) O 90 -2,4 C -2,2 C 0,0 km/h (0 Bft)
19.11.2012 22:45 -1,8 C 96 % 0,0 l/m 0,0 km/h (0 Bft) O 90 -2,4 C -2,3 C 0,0 km/h (0 Bft)
19.11.2012 22:50 -2,0 C 96 % 0,0 l/m 0,0 km/h (0 Bft) O 90 -2,6 C -2,4 C 0,0 km/h (0 Bft)
19.11.2012 22:55 -2,1 C 96 % 0,0 l/m 0,0 km/h (0 Bft) O 90 -2,6 C -2,5 C 0,0 km/h (0 Bft)
19.11.2012 23:00 -2,2 C 96 % 0,0 l/m 0,0 km/h (0 Bft) O 90 -2,7 C -2,7 C 0,0 km/h (0 Bft)
19.11.2012 23:05 -2,3 C 96 % 0,0 l/m 0,0 km/h (0 Bft) O 90 -2,8 C -2,8 C 0,0 km/h (0 Bft)
19.11.2012 23:10 -2,4 C 95 % 0,0 l/m 0,0 km/h (0 Bft) O 90 -3,1 C -3,1 C 0,0 km/h (0 Bft)
19.11.2012 23:15 -2,4 C 95 % 0,0 l/m 0,0 km/h (0 Bft) O 90 -3,1 C -3,1 C 0,0 km/h (0 Bft)
19.11.2012 23:20 -2,4 C 95 % 0,0 l/m 0,0 km/h (0 Bft) O 90 -3,1 C -3,0 C 0,0 km/h (0 Bft)
19.11.2012 23:25 -2,5 C 95 % 0,0 l/m 0,0 km/h (0 Bft) O 90 -3,2 C -3,1 C 0,0 km/h (0 Bft)
19.11.2012 23:30 -2,5 C 95 % 0,0 l/m 0,0 km/h (0 Bft) O 90 -3,2 C -3,2 C 0,0 km/h (0 Bft)
19.11.2012 23:35 -2,6 C 95 % 0,0 l/m 0,6 km/h (0 Bft) O 90 -3,3 C -3,2 C 2,6 km/h (1 Bft)
19.11.2012 23:40 -2,8 C 95 % 0,0 l/m 1,0 km/h (0 Bft) O 90 -3,5 C -3,3 C 0,0 km/h (0 Bft)
19.11.2012 23:45 -3,1 C 95 % 0,0 l/m 0,6 km/h (0 Bft) O 90 -3,8 C -3,5 C 0,0 km/h (0 Bft)
19.11.2012 23:50 -3,4 C 95 % 0,0 l/m 0,0 km/h (0 Bft) O 90 -4,1 C -3,8 C 0,0 km/h (0 Bft)
19.11.2012 23:55 -3,2 C 95 % 0,0 l/m 0,0 km/h (0 Bft) O 90 -3,9 C -3,9 C 0,0 km/h (0 Bft)
20.11.2012 00:00 -3,2 C 95 % 0,0 l/m 0,2 km/h (0 Bft) O 90 -3,9 C -3,8 C 0,0 km/h (0 Bft)
20.11.2012 00:05 -3,2 C 95 % 0,0 l/m 0,2 km/h (0 Bft) O 90 -3,9 C -3,8 C 0,0 km/h (0 Bft)
20.11.2012 00:10 -3,2 C 95 % 0,0 l/m 0,0 km/h (0 Bft) O 90 -3,9 C -3,8 C 0,0 km/h (0 Bft)
20.11.2012 00:15 -3,2 C 95 % 0,0 l/m 0,0 km/h (0 Bft) O 90 -3,9 C -3,8 C 0,0 km/h (0 Bft)
20.11.2012 00:20 -3,4 C 95 % 0,0 l/m 0,0 km/h (0 Bft) O 90 -4,1 C -3,9 C 0,0 km/h (0 Bft)
20.11.2012 00:25 -3,4 C 95 % 0,0 l/m 0,0 km/h (0 Bft) O 90 -4,1 C -4,0 C 0,0 km/h (0 Bft)
20.11.2012 00:30 -3,3 C 95 % 0,0 l/m 0,0 km/h (0 Bft) O 90 -4,0 C -4,0 C 0,0 km/h (0 Bft)
20.11.2012 00:35 -3,5 C 95 % 0,0 l/m 0,0 km/h (0 Bft) O 90 -4,2 C -4,1 C 0,0 km/h (0 Bft)
20.11.2012 00:40 -3,5 C 95 % 0,0 l/m 0,0 km/h (0 Bft) O 90 -4,2 C -4,2 C 0,0 km/h (0 Bft)
20.11.2012 00:45 -3,3 C 95 % 0,0 l/m 0,0 km/h (0 Bft) O 90 -4,0 C -4,2 C 0,0 km/h (0 Bft)
20.11.2012 00:50 -3,7 C 95 % 0,0 l/m 0,0 km/h (0 Bft) O 90 -4,4 C -4,3 C 0,0 km/h (0 Bft)
20.11.2012 00:55 -3,7 C 95 % 0,0 l/m 0,0 km/h (0 Bft) O 90 -4,4 C -4,4 C 0,0 km/h (0 Bft)
20.11.2012 01:00 -4,0 C 94 % 0,0 l/m 0,0 km/h (0 Bft) O 90 -4,8 C -4,6 C 0,0 km/h (0 Bft)
20.11.2012 01:05 -4,1 C 94 % 0,0 l/m 0,0 km/h (0 Bft) O 90 -4,9 C -4,8 C 0,0 km/h (0 Bft)
20.11.2012 01:10 -4,2 C 94 % 0,0 l/m 0,0 km/h (0 Bft) O 90 -5,0 C -4,9 C 0,0 km/h (0 Bft)
20.11.2012 01:15 -4,2 C 94 % 0,0 l/m 0,0 km/h (0 Bft) O 90 -5,0 C -5,0 C 0,0 km/h (0 Bft)
20.11.2012 01:20 -4,1 C 94 % 0,0 l/m 0,0 km/h (0 Bft) O 90 -4,9 C -5,0 C 0,0 km/h (0 Bft)
20.11.2012 01:25 -4,2 C 94 % 0,0 l/m 0,0 km/h (0 Bft) O 90 -5,0 C -5,0 C 0,0 km/h (0 Bft)
20.11.2012 01:30 -3,9 C 94 % 0,0 l/m 0,0 km/h (0 Bft) O 90 -4,7 C -4,8 C 0,0 km/h (0 Bft)
20.11.2012 01:35 -4,0 C 94 % 0,0 l/m 0,0 km/h (0 Bft) O 90 -4,8 C -4,8 C 0,0 km/h (0 Bft)
20.11.2012 01:40 -4,3 C 94 % 0,0 l/m 0,0 km/h (0 Bft) O 90 -5,1 C -4,8 C 0,0 km/h (0 Bft)
20.11.2012 01:45 -4,5 C 94 % 0,0 l/m 0,0 km/h (0 Bft) O 90 -5,3 C -4,9 C 0,0 km/h (0 Bft)
20.11.2012 01:50 -4,5 C 94 % 0,0 l/m 0,0 km/h (0 Bft) O 90 -5,3 C -5,0 C 0,0 km/h (0 Bft)
20.11.2012 01:55 -4,3 C 94 % 0,0 l/m 0,0 km/h (0 Bft) O 90 -5,1 C -5,0 C 0,0 km/h (0 Bft)
20.11.2012 02:00 -4,4 C 94 % 0,0 l/m 0,0 km/h (0 Bft) O 90 -5,2 C -5,0 C 0,0 km/h (0 Bft)
20.11.2012 02:05 -4,5 C 94 % 0,0 l/m 0,0 km/h (0 Bft) O 90 -5,3 C -5,1 C 0,0 km/h (0 Bft)
20.11.2012 02:10 -4,1 C 94 % 0,0 l/m 0,0 km/h (0 Bft) O 90 -4,9 C -5,1 C 0,0 km/h (0 Bft)
20.11.2012 02:15 -4,1 C 94 % 0,0 l/m 0,0 km/h (0 Bft) O 90 -4,9 C -5,0 C 0,0 km/h (0 Bft)
20.11.2012 02:20 -4,4 C 94 % 0,0 l/m 0,0 km/h (0 Bft) O 90 -5,2 C -5,1 C 0,0 km/h (0 Bft)
20.11.2012 02:25 -4,4 C 94 % 0,0 l/m 0,0 km/h (0 Bft) O 90 -5,2 C -5,0 C 0,0 km/h (0 Bft)
20.11.2012 02:30 -4,6 C 94 % 0,0 l/m 0,0 km/h (0 Bft) O 90 -5,4 C -5,1 C 0,0 km/h (0 Bft)
20.11.2012 02:35 -4,7 C 94 % 0,0 l/m 0,0 km/h (0 Bft) O 90 -5,5 C -5,2 C 0,0 km/h (0 Bft)
20.11.2012 02:40 -4,7 C 93 % 0,0 l/m 0,0 km/h (0 Bft) O 90 -5,7 C -5,5 C 0,0 km/h (0 Bft)
20.11.2012 02:45 -4,8 C 93 % 0,0 l/m 0,0 km/h (0 Bft) O 90 -5,8 C -5,5 C 0,0 km/h (0 Bft)
20.11.2012 02:50 -4,8 C 93 % 0,0 l/m 0,0 km/h (0 Bft) O 90 -5,8 C -5,6 C 0,0 km/h (0 Bft)
20.11.2012 02:55 -5,0 C 93 % 0,0 l/m 0,0 km/h (0 Bft) O 90 -6,0 C -5,6 C 0,0 km/h (0 Bft)
20.11.2012 03:00 -5,0 C 93 % 0,0 l/m 0,0 km/h (0 Bft) O 90 -6,0 C -5,8 C 0,0 km/h (0 Bft)
20.11.2012 03:05 -5,0 C 93 % 0,0 l/m 0,0 km/h (0 Bft) O 90 -6,0 C -5,8 C 0,0 km/h (0 Bft)
20.11.2012 03:10 -4,8 C 93 % 0,0 l/m 0,0 km/h (0 Bft) O 90 -5,8 C -5,7 C 0,0 km/h (0 Bft)
20.11.2012 03:15 -5,0 C 93 % 0,0 l/m 0,0 km/h (0 Bft) O 90 -6,0 C -5,6 C 0,0 km/h (0 Bft)
20.11.2012 03:20 -4,9 C 93 % 0,0 l/m 0,0 km/h (0 Bft) O 90 -5,9 C -5,2 C 0,0 km/h (0 Bft)
20.11.2012 03:25 -4,6 C 93 % 0,0 l/m 0,0 km/h (0 Bft) O 90 -5,6 C -5,2 C 0,0 km/h (0 Bft)
20.11.2012 03:30 -4,6 C 93 % 0,0 l/m 0,0 km/h (0 Bft) O 90 -5,6 C -5,4 C 0,0 km/h (0 Bft)
20.11.2012 03:35 -4,7 C 93 % 0,0 l/m 0,0 km/h (0 Bft) O 90 -5,7 C -5,4 C 0,0 km/h (0 Bft)
20.11.2012 03:40 -4,6 C 93 % 0,0 l/m 0,0 km/h (0 Bft) O 90 -5,6 C -5,4 C 0,0 km/h (0 Bft)
20.11.2012 03:45 -4,7 C 93 % 0,0 l/m 0,0 km/h (0 Bft) O 90 -5,7 C -5,4 C 0,0 km/h (0 Bft)
20.11.2012 03:50 -4,9 C 93 % 0,0 l/m 0,0 km/h (0 Bft) O 90 -5,9 C -5,7 C 0,0 km/h (0 Bft)
20.11.2012 03:55 -5,0 C 93 % 0,0 l/m 0,0 km/h (0 Bft) O 90 -6,0 C -5,8 C 0,0 km/h (0 Bft)
20.11.2012 04:00 -5,1 C 93 % 0,0 l/m 0,0 km/h (0 Bft) O 90 -6,1 C -6,1 C 0,0 km/h (0 Bft)
20.11.2012 04:05 -4,7 C 93 % 0,0 l/m 0,0 km/h (0 Bft) O 90 -5,7 C -6,0 C 0,0 km/h (0 Bft)
20.11.2012 04:10 -5,0 C 93 % 0,0 l/m 0,0 km/h (0 Bft) O 90 -6,0 C -5,7 C 0,0 km/h (0 Bft)
20.11.2012 04:15 -4,7 C 93 % 0,0 l/m 0,0 km/h (0 Bft) O 90 -5,7 C -5,6 C 0,0 km/h (0 Bft)
20.11.2012 04:20 -4,5 C 93 % 0,0 l/m 0,0 km/h (0 Bft) O 90 -5,5 C -5,6 C 0,0 km/h (0 Bft)
20.11.2012 04:25 -4,2 C 93 % 0,0 l/m 0,0 km/h (0 Bft) O 90 -5,2 C -5,4 C 0,0 km/h (0 Bft)
20.11.2012 04:30 -4,7 C 93 % 0,0 l/m 0,0 km/h (0 Bft) O 90 -5,7 C -5,2 C 0,0 km/h (0 Bft)
20.11.2012 04:35 -4,8 C 93 % 0,0 l/m 0,0 km/h (0 Bft) O 90 -5,8 C -5,4 C 0,0 km/h (0 Bft)
20.11.2012 04:40 -4,8 C 93 % 0,0 l/m 0,0 km/h (0 Bft) O 90 -5,8 C -5,6 C 0,0 km/h (0 Bft)
20.11.2012 04:45 -4,8 C 93 % 0,0 l/m 0,0 km/h (0 Bft) O 90 -5,8 C -5,7 C 0,0 km/h (0 Bft)
20.11.2012 04:50 -4,8 C 93 % 0,0 l/m 0,0 km/h (0 Bft) O 90 -5,8 C -5,8 C 0,0 km/h (0 Bft)
20.11.2012 04:55 -4,7 C 93 % 0,0 l/m 0,0 km/h (0 Bft) O 90 -5,7 C -5,7 C 0,0 km/h (0 Bft)
20.11.2012 05:00 -5,1 C 93 % 0,0 l/m 0,0 km/h (0 Bft) O 90 -6,1 C -5,4 C 0,0 km/h (0 Bft)
20.11.2012 05:05 -5,0 C 93 % 0,0 l/m 0,0 km/h (0 Bft) O 90 -6,0 C -5,6 C 0,0 km/h (0 Bft)
20.11.2012 05:10 -5,2 C 92 % 0,0 l/m 0,0 km/h (0 Bft) O 90 -6,3 C -5,6 C 0,0 km/h (0 Bft)
20.11.2012 05:15 -5,0 C 92 % 0,0 l/m 0,0 km/h (0 Bft) O 90 -6,1 C -5,7 C 0,0 km/h (0 Bft)
20.11.2012 05:20 -5,0 C 92 % 0,0 l/m 0,0 km/h (0 Bft) O 90 -6,1 C -5,6 C 0,0 km/h (0 Bft)
20.11.2012 05:25 -5,1 C 92 % 0,0 l/m 0,0 km/h (0 Bft) O 90 -6,2 C -5,7 C 0,0 km/h (0 Bft)
20.11.2012 05:30 -5,0 C 92 % 0,0 l/m 0,0 km/h (0 Bft) O 90 -6,1 C -5,8 C 0,0 km/h (0 Bft)
20.11.2012 05:35 -5,0 C 92 % 0,0 l/m 0,0 km/h (0 Bft) O 90 -6,1 C -5,9 C 0,0 km/h (0 Bft)
20.11.2012 05:40 -5,0 C 92 % 0,0 l/m 0,0 km/h (0 Bft) O 90 -6,1 C -6,0 C 0,0 km/h (0 Bft)
20.11.2012 05:45 -5,2 C 92 % 0,0 l/m 0,0 km/h (0 Bft) O 90 -6,3 C -6,0 C 0,0 km/h (0 Bft)
20.11.2012 05:50 -5,2 C 92 % 0,0 l/m 0,0 km/h (0 Bft) O 90 -6,3 C -6,0 C 0,0 km/h (0 Bft)
20.11.2012 05:55 -5,5 C 92 % 0,0 l/m 0,0 km/h (0 Bft) O 90 -6,6 C -6,1 C 0,0 km/h (0 Bft)
20.11.2012 06:00 -5,4 C 92 % 0,0 l/m 0,0 km/h (0 Bft) O 90 -6,5 C -6,2 C 0,0 km/h (0 Bft)
20.11.2012 06:05 -5,2 C 92 % 0,0 l/m 0,0 km/h (0 Bft) O 90 -6,3 C -6,1 C 0,0 km/h (0 Bft)
20.11.2012 06:10 -4,9 C 92 % 0,0 l/m 0,0 km/h (0 Bft) O 90 -6,0 C -5,8 C 0,0 km/h (0 Bft)
20.11.2012 06:15 -5,1 C 92 % 0,0 l/m 0,0 km/h (0 Bft) O 90 -6,2 C -5,8 C 0,0 km/h (0 Bft)
20.11.2012 06:20 -5,2 C 92 % 0,0 l/m 0,0 km/h (0 Bft) O 90 -6,3 C -5,8 C 0,0 km/h (0 Bft)
20.11.2012 06:25 -5,1 C 92 % 0,0 l/m 0,0 km/h (0 Bft) O 90 -6,2 C -5,8 C 0,0 km/h (0 Bft)
20.11.2012 06:30 -5,0 C 92 % 0,0 l/m 0,0 km/h (0 Bft) O 90 -6,1 C -5,7 C 0,0 km/h (0 Bft)
20.11.2012 06:35 -4,9 C 92 % 0,0 l/m 0,0 km/h (0 Bft) O 90 -6,0 C -5,8 C 0,0 km/h (0 Bft)
20.11.2012 06:40 -4,9 C 92 % 0,0 l/m 0,0 km/h (0 Bft) O 90 -6,0 C -5,7 C 0,0 km/h (0 Bft)
20.11.2012 06:45 -4,8 C 92 % 0,0 l/m 0,0 km/h (0 Bft) O 90 -5,9 C -5,8 C 0,0 km/h (0 Bft)
20.11.2012 06:50 -5,0 C 92 % 0,0 l/m 0,0 km/h (0 Bft) O 90 -6,1 C -5,7 C 0,0 km/h (0 Bft)
20.11.2012 06:55 -5,0 C 92 % 0,0 l/m 0,0 km/h (0 Bft) O 90 -6,1 C -5,8 C 0,0 km/h (0 Bft)
20.11.2012 07:00 -4,6 C 92 % 0,0 l/m 0,0 km/h (0 Bft) O 90 -5,7 C -5,6 C 0,0 km/h (0 Bft)
20.11.2012 07:05 -4,5 C 92 % 0,0 l/m 0,0 km/h (0 Bft) O 90 -5,6 C -5,5 C 0,0 km/h (0 Bft)
20.11.2012 07:10 -4,9 C 92 % 0,0 l/m 0,0 km/h (0 Bft) O 90 -6,0 C -5,4 C 0,0 km/h (0 Bft)
20.11.2012 07:15 -5,0 C 92 % 0,0 l/m 0,0 km/h (0 Bft) O 90 -6,1 C -5,7 C 0,0 km/h (0 Bft)
20.11.2012 07:20 -5,1 C 92 % 0,0 l/m 0,0 km/h (0 Bft) O 90 -6,2 C -5,7 C 0,0 km/h (0 Bft)
20.11.2012 07:25 -4,8 C 92 % 0,0 l/m 0,0 km/h (0 Bft) O 90 -5,9 C -5,7 C 0,0 km/h (0 Bft)
20.11.2012 07:30 -4,6 C 92 % 0,0 l/m 0,0 km/h (0 Bft) O 90 -5,7 C -5,5 C 0,0 km/h (0 Bft)
20.11.2012 07:35 -4,8 C 92 % 0,0 l/m 0,0 km/h (0 Bft) O 90 -5,9 C -5,4 C 0,0 km/h (0 Bft)
20.11.2012 07:40 -4,7 C 92 % 0,0 l/m 0,0 km/h (0 Bft) O 90 -5,8 C -5,4 C 0,0 km/h (0 Bft)
20.11.2012 07:45 -4,4 C 92 % 0,0 l/m 0,0 km/h (0 Bft) O 90 -5,5 C -5,4 C 0,0 km/h (0 Bft)
20.11.2012 07:50 -4,5 C 92 % 0,0 l/m 0,0 km/h (0 Bft) O 90 -5,6 C -5,0 C 0,0 km/h (0 Bft)
20.11.2012 07:55 -4,3 C 92 % 0,0 l/m 0,0 km/h (0 Bft) O 90 -5,4 C -5,0 C 0,0 km/h (0 Bft)
20.11.2012 08:00 -4,4 C 92 % 0,0 l/m 0,0 km/h (0 Bft) O 90 -5,5 C -5,0 C 0,0 km/h (0 Bft)
20.11.2012 08:05 -3,9 C 92 % 0,0 l/m 0,0 km/h (0 Bft) O 90 -5,0 C -5,0 C 0,0 km/h (0 Bft)
20.11.2012 08:10 -4,2 C 92 % 0,0 l/m 0,0 km/h (0 Bft) O 90 -5,3 C -4,7 C 0,0 km/h (0 Bft)
20.11.2012 08:15 -4,2 C 92 % 0,0 l/m 0,0 km/h (0 Bft) O 90 -5,3 C -4,7 C 0,0 km/h (0 Bft)
20.11.2012 08:20 -4,1 C 92 % 0,0 l/m 0,0 km/h (0 Bft) O 90 -5,2 C -4,8 C 0,0 km/h (0 Bft)
20.11.2012 08:25 -4,1 C 92 % 0,0 l/m 0,0 km/h (0 Bft) O 90 -5,2 C -4,8 C 0,0 km/h (0 Bft)
20.11.2012 08:30 -4,2 C 92 % 0,0 l/m 0,0 km/h (0 Bft) O 90 -5,3 C -4,5 C 0,0 km/h (0 Bft)
20.11.2012 08:35 -3,9 C 93 % 0,0 l/m 0,0 km/h (0 Bft) O 90 -4,9 C -4,4 C 0,0 km/h (0 Bft)
20.11.2012 08:40 -3,8 C 93 % 0,0 l/m 0,0 km/h (0 Bft) O 90 -4,8 C -4,3 C 0,0 km/h (0 Bft)
20.11.2012 08:45 -3,6 C 93 % 0,0 l/m 0,0 km/h (0 Bft) O 90 -4,6 C -4,3 C 0,0 km/h (0 Bft)
20.11.2012 08:50 -3,8 C 93 % 0,0 l/m 0,0 km/h (0 Bft) O 90 -4,8 C -4,0 C 0,0 km/h (0 Bft)
20.11.2012 08:55 -3,8 C 93 % 0,0 l/m 0,0 km/h (0 Bft) O 90 -4,8 C -4,1 C 0,0 km/h (0 Bft)
20.11.2012 09:00 -3,5 C 93 % 0,0 l/m 0,0 km/h (0 Bft) O 90 -4,5 C -4,1 C 0,0 km/h (0 Bft)
20.11.2012 09:05 -3,4 C 93 % 0,0 l/m 0,0 km/h (0 Bft) O 90 -4,4 C -4,0 C 0,0 km/h (0 Bft)
20.11.2012 09:10 -3,1 C 93 % 0,0 l/m 0,0 km/h (0 Bft) O 90 -4,1 C -3,7 C 0,0 km/h (0 Bft)
20.11.2012 09:15 -3,2 C 93 % 0,0 l/m 0,0 km/h (0 Bft) O 90 -4,2 C -3,6 C 0,0 km/h (0 Bft)
20.11.2012 09:20 -2,8 C 93 % 0,0 l/m 0,0 km/h (0 Bft) O 90 -3,8 C -3,6 C 0,0 km/h (0 Bft)
20.11.2012 09:25 -2,9 C 93 % 0,0 l/m 0,0 km/h (0 Bft) O 90 -3,9 C -3,4 C 0,0 km/h (0 Bft)
20.11.2012 09:30 -2,6 C 93 % 0,0 l/m 0,0 km/h (0 Bft) O 90 -3,6 C -3,3 C 0,0 km/h (0 Bft)
20.11.2012 09:35 -2,6 C 93 % 0,0 l/m 0,0 km/h (0 Bft) O 90 -3,6 C -3,2 C 0,0 km/h (0 Bft)
20.11.2012 09:40 -2,4 C 93 % 0,0 l/m 0,0 km/h (0 Bft) O 90 -3,4 C -2,9 C 0,0 km/h (0 Bft)
20.11.2012 09:45 -2,1 C 94 % 0,0 l/m 0,0 km/h (0 Bft) O 90 -2,9 C -2,7 C 0,0 km/h (0 Bft)
20.11.2012 09:50 -1,9 C 94 % 0,0 l/m 0,0 km/h (0 Bft) O 90 -2,7 C -2,4 C 0,0 km/h (0 Bft)
20.11.2012 09:55 -1,6 C 94 % 0,0 l/m 0,0 km/h (0 Bft) O 90 -2,4 C -2,3 C 0,0 km/h (0 Bft)
20.11.2012 10:00 -1,4 C 94 % 0,0 l/m 0,0 km/h (0 Bft) O 90 -2,2 C -2,2 C 0,0 km/h (0 Bft)
20.11.2012 10:05 -1,3 C 94 % 0,0 l/m 0,0 km/h (0 Bft) O 90 -2,1 C -2,0 C 0,0 km/h (0 Bft)
20.11.2012 10:10 -1,1 C 94 % 0,0 l/m 0,0 km/h (0 Bft) O 90 -1,9 C -1,6 C 0,0 km/h (0 Bft)
20.11.2012 10:15 -0,9 C 94 % 0,0 l/m 0,0 km/h (0 Bft) O 90 -1,7 C -1,3 C 0,0 km/h (0 Bft)
20.11.2012 10:20 -0,6 C 95 % 0,0 l/m 0,0 km/h (0 Bft) O 90 -1,3 C -0,6 C 0,0 km/h (0 Bft)
20.11.2012 10:25 -0,5 C 95 % 0,0 l/m 0,0 km/h (0 Bft) O 90 -1,2 C -0,3 C 0,0 km/h (0 Bft)
20.11.2012 10:30 -0,4 C 95 % 0,0 l/m 0,0 km/h (0 Bft) O 90 -1,1 C 0,0 C 0,0 km/h (0 Bft)
20.11.2012 10:35 -0,3 C 95 % 0,0 l/m 0,0 km/h (0 Bft) O 90 -1,0 C 0,3 C 0,0 km/h (0 Bft)
20.11.2012 10:40 -0,1 C 95 % 0,0 l/m 0,0 km/h (0 Bft) O 90 -0,8 C 2,1 C 1,8 km/h (1 Bft)
20.11.2012 10:45 0,0 C 95 % 0,0 l/m 0,2 km/h (0 Bft) O 90 -0,7 C 3,3 C 0,0 km/h (0 Bft)
20.11.2012 10:50 0,0 C 95 % 0,0 l/m 0,6 km/h (0 Bft) O 90 -0,7 C 3,4 C 2,7 km/h (1 Bft)
20.11.2012 10:55 0,1 C 95 % 0,0 l/m 1,4 km/h (1 Bft) N 360 -0,6 C 4,2 C 2,6 km/h (1 Bft)
20.11.2012 11:00 0,2 C 96 % 0,0 l/m 1,9 km/h (1 Bft) N-NO 22 -0,4 C 5,4 C 3,1 km/h (1 Bft)
20.11.2012 11:05 0,2 C 96 % 0,0 l/m 1,1 km/h (1 Bft) N-NO 22 -0,4 C 6,0 C 0,0 km/h (0 Bft)
20.11.2012 11:10 0,5 C 96 % 0,0 l/m 0,5 km/h (0 Bft) N-NO 22 -0,1 C 6,8 C 1,9 km/h (1 Bft)
20.11.2012 11:15 0,6 C 96 % 0,0 l/m 0,5 km/h (0 Bft) N-NO 22 0,0 C 7,2 C 0,0 km/h (0 Bft)
20.11.2012 11:20 0,7 C 96 % 0,0 l/m 0,3 km/h (0 Bft) N-NO 22 0,1 C 7,8 C 0,0 km/h (0 Bft)
20.11.2012 11:25 0,9 C 96 % 0,0 l/m 0,2 km/h (0 Bft) N-NO 22 0,3 C 8,2 C 0,0 km/h (0 Bft)
20.11.2012 11:30 1,1 C 96 % 0,0 l/m 0,3 km/h (0 Bft) N-NW 337 0,5 C 8,7 C 1,8 km/h (1 Bft)
20.11.2012 11:35 1,2 C 96 % 0,0 l/m 0,3 km/h (0 Bft) N 360 0,6 C 8,9 C 0,0 km/h (0 Bft)
20.11.2012 11:40 1,4 C 96 % 0,0 l/m 0,2 km/h (0 Bft) N 360 0,8 C 9,3 C 0,0 km/h (0 Bft)
20.11.2012 11:45 1,5 C 96 % 0,0 l/m 0,0 km/h (0 Bft) N 360 0,9 C 9,7 C 0,0 km/h (0 Bft)
20.11.2012 11:50 1,6 C 96 % 0,0 l/m 0,0 km/h (0 Bft) N 360 1,0 C 10,4 C 0,0 km/h (0 Bft)
20.11.2012 11:55 1,7 C 96 % 0,0 l/m 0,0 km/h (0 Bft) N-NO 22 1,1 C 10,5 C 0,0 km/h (0 Bft)
20.11.2012 12:00 1,7 C 96 % 0,0 l/m 0,0 km/h (0 Bft) N-NW 337 1,1 C 10,9 C 0,0 km/h (0 Bft)
20.11.2012 12:05 1,8 C 96 % 0,0 l/m 0,0 km/h (0 Bft) N-NW 337 1,2 C 11,0 C 0,0 km/h (0 Bft)
20.11.2012 12:10 1,8 C 96 % 0,0 l/m 0,2 km/h (0 Bft) W-NW 292 1,2 C 11,0 C 1,8 km/h (1 Bft)
20.11.2012 12:15 1,7 C 96 % 0,0 l/m 0,3 km/h (0 Bft) N-NW 337 1,1 C 10,1 C 0,0 km/h (0 Bft)
20.11.2012 12:20 1,8 C 96 % 0,0 l/m 0,8 km/h (0 Bft) NW 315 1,2 C 8,5 C 3,4 km/h (1 Bft)
20.11.2012 12:25 1,9 C 96 % 0,0 l/m 1,1 km/h (1 Bft) N-NO 22 1,3 C 7,5 C 2,1 km/h (1 Bft)
20.11.2012 12:30 2,0 C 96 % 0,0 l/m 1,1 km/h (1 Bft) N-NW 337 1,4 C 6,3 C 0,0 km/h (0 Bft)
20.11.2012 12:35 2,1 C 96 % 0,0 l/m 0,8 km/h (0 Bft) N 360 1,5 C 5,7 C 1,8 km/h (1 Bft)
20.11.2012 12:40 2,3 C 96 % 0,0 l/m 0,0 km/h (0 Bft) N 360 1,7 C 4,7 C 0,0 km/h (0 Bft)
20.11.2012 12:45 2,1 C 96 % 0,0 l/m 0,0 km/h (0 Bft) N-NW 337 1,5 C 4,4 C 0,0 km/h (0 Bft)
20.11.2012 12:50 2,3 C 96 % 0,0 l/m 0,0 km/h (0 Bft) N 360 1,7 C 4,6 C 0,0 km/h (0 Bft)
20.11.2012 12:55 2,3 C 96 % 0,0 l/m 0,0 km/h (0 Bft) N-NW 337 1,7 C 5,0 C 0,0 km/h (0 Bft)
20.11.2012 13:00 2,4 C 96 % 0,0 l/m 0,0 km/h (0 Bft) N-NW 337 1,8 C 5,8 C 0,0 km/h (0 Bft)
20.11.2012 13:05 2,3 C 96 % 0,0 l/m 0,0 km/h (0 Bft) NW 315 1,7 C 6,3 C 0,0 km/h (0 Bft)
_ Min-Zeit 05:55 14:05 - 13:05 - - 05:55 06:00 13:05
Minimum _ -5,5 C 79 % - 0,0 km/h (0 Bft) - - -6,6 C -6,2 C 0,0 km/h (0 Bft)
_ Max-Zeit 14:05 13:05 13:05 20:25 - - 14:50 12:10 20:15
Maximum _ 4,8 C 96 % 0,0 l/m 2,4 km/h
O (1 Bft)
- - 2,0 C 11,0 C 3,5 km/h
O (1 Bft)
Durchschnitt _ -1,2 C 92 % #0,0 l/m 0,2 km/h (0 Bft) O - -2,3 C -0,9 C 0,4 km/h (0 Bft)